Dedham, Massachusetts
Current Conditions -  °F | °C
As of 3:53 AM on Wednesday 22 Oct 2014 (Local Time) from KOWD Reporting Station
Overcast Overcast  
Wind Chill: 11°   Ceiling: 600
Heat Index: 11°   Visibility: 10mi
Dew Point:   Wind: 7mph
Humidity: 92%   Direction: 10°N
Pressure: 29.96"   Gusts: NA
Location:  42.25°N, 71.17°W
Report Text: KOWD 220753Z AUTO 01006KT 10SM OVC006 11/09 A2996 RMK AO2 RAB0659E19 SLP145 P0000 T01060094
Loading
Personal Weather Stations






























Interactive Weather Map
Tropical Storm Tracking
New forecast layout! Learn more

10-Day Weather Forecast

Advertisements
Track Severe Weather on mobile